createdAt,value
2022-10-21T00:01:04.905Z,20.25
2022-10-21T00:03:31.493Z,20.45
2022-10-21T00:05:58.139Z,19.73
2022-10-21T00:08:24.840Z,20.23
2022-10-21T00:10:56.570Z,20.20
2022-10-21T00:13:23.684Z,20.23
2022-10-21T00:16:05.327Z,19.75
2022-10-21T00:18:32.542Z,20.42
2022-10-21T00:20:59.158Z,19.50
2022-10-21T00:23:25.788Z,19.25
2022-10-21T00:25:59.122Z,21.33
2022-10-21T00:28:26.382Z,21.10
2022-10-21T00:30:52.979Z,20.88
2022-10-21T00:33:19.619Z,21.83
2022-10-21T00:35:57.495Z,20.08
2022-10-21T00:38:24.182Z,19.85
2022-10-21T00:40:50.870Z,20.80
2022-10-21T00:43:17.605Z,20.30
2022-10-21T00:45:44.263Z,19.10
2022-10-21T00:48:20.045Z,20.88
2022-10-21T00:50:59.084Z,20.08
2022-10-21T00:53:25.757Z,20.77
2022-10-21T00:56:04.644Z,19.30
2022-10-21T00:58:31.939Z,21.30
2022-10-21T01:00:59.353Z,20.13
2022-10-21T01:03:26.981Z,21.58
2022-10-21T01:05:54.159Z,19.02
2022-10-21T01:08:20.785Z,19.52
2022-10-21T01:10:47.387Z,20.48
2022-10-21T01:13:16.941Z,20.63
2022-10-21T01:16:03.577Z,17.98
2022-10-21T01:18:41.911Z,19.60
2022-10-21T01:21:29.196Z,20.70
2022-10-21T01:24:12.103Z,19.58
2022-10-21T01:27:12.721Z,20.17
2022-10-21T01:30:08.048Z,21.63
2022-10-21T01:32:46.942Z,18.85
2022-10-21T01:35:23.841Z,20.15
2022-10-21T01:38:07.042Z,18.95
2022-10-21T01:43:46.885Z,18.02
2022-10-21T01:46:22.863Z,18.10
2022-10-21T01:48:53.058Z,19.15
2022-10-21T01:51:19.761Z,20.67
2022-10-21T01:53:51.704Z,20.20
2022-10-21T01:56:18.358Z,21.65
2022-10-21T01:58:45.001Z,23.58
2022-10-21T02:01:11.803Z,23.77
2022-10-21T02:03:39.972Z,24.20
2022-10-21T02:06:06.608Z,23.25
2022-10-21T02:08:33.312Z,22.15
2022-10-21T02:11:03.447Z,20.75
2022-10-21T02:13:40.810Z,18.90
2022-10-21T02:16:10.430Z,19.45
2022-10-21T02:18:37.100Z,20.45
2022-10-21T02:21:07.019Z,21.67
2022-10-21T02:23:48.412Z,21.63
2022-10-21T02:26:15.059Z,20.38
2022-10-21T02:28:41.679Z,21.27
2022-10-21T02:31:23.444Z,20.55
2022-10-21T02:33:58.089Z,21.23
2022-10-21T02:36:38.173Z,21.38
2022-10-21T02:39:17.571Z,22.25
2022-10-21T02:41:44.197Z,20.65
2022-10-21T02:44:10.756Z,19.98
2022-10-21T02:46:41.179Z,20.38
2022-10-21T02:49:08.295Z,19.77
2022-10-21T02:51:35.129Z,19.95
2022-10-21T02:54:01.775Z,19.98
2022-10-21T02:58:59.974Z,19.35
2022-10-21T03:01:26.706Z,19.27
2022-10-21T03:03:53.302Z,19.05
2022-10-21T03:06:20.055Z,18.48
2022-10-21T03:08:46.662Z,17.90
2022-10-21T03:11:13.501Z,18.40
2022-10-21T03:13:40.130Z,18.85
2022-10-21T03:16:07.229Z,16.90
2022-10-21T03:18:33.799Z,17.10
2022-10-21T03:21:00.416Z,16.67
2022-10-21T03:23:26.968Z,16.20
2022-10-21T03:25:53.525Z,16.08
2022-10-21T03:28:20.135Z,15.50
2022-10-21T03:30:46.695Z,15.77
2022-10-21T03:33:13.277Z,14.95
2022-10-21T03:35:39.833Z,15.77
2022-10-21T03:38:06.409Z,15.95
2022-10-21T03:40:32.963Z,15.07
2022-10-21T03:42:59.622Z,14.90
2022-10-21T03:45:26.442Z,16.55
2022-10-21T03:47:53.115Z,15.25
2022-10-21T03:50:23.726Z,14.23
2022-10-21T03:52:53.072Z,14.52
2022-10-21T03:55:21.084Z,13.20
2022-10-21T03:57:48.378Z,14.15
2022-10-21T04:00:15.700Z,14.45
2022-10-21T04:02:42.557Z,14.68
2022-10-21T04:05:10.556Z,13.60
2022-10-21T04:07:37.450Z,13.13
2022-10-21T04:10:05.255Z,12.45
2022-10-21T04:12:31.923Z,11.85
2022-10-21T04:14:58.517Z,12.15
2022-10-21T04:17:25.150Z,11.20
2022-10-21T04:19:51.730Z,12.07
2022-10-21T04:22:18.385Z,11.63
2022-10-21T04:24:44.951Z,10.52
2022-10-21T04:27:11.586Z,11.80
2022-10-21T04:29:38.157Z,11.32
2022-10-21T04:32:04.833Z,10.82
2022-10-21T04:34:31.387Z,10.75
2022-10-21T04:37:01.072Z,11.85
2022-10-21T04:39:30.769Z,10.60
2022-10-21T04:41:57.416Z,11.15
2022-10-21T04:44:23.968Z,11.10
2022-10-21T04:46:50.621Z,11.07
2022-10-21T04:49:17.194Z,10.88
2022-10-21T04:51:43.781Z,11.55
2022-10-21T04:54:10.407Z,10.20
2022-10-21T04:56:37.002Z,11.38
2022-10-21T04:59:03.631Z,10.02
2022-10-21T05:01:30.429Z,10.27
2022-10-21T05:03:57.077Z,10.38
2022-10-21T05:06:23.652Z,9.65
2022-10-21T05:08:50.248Z,10.63
2022-10-21T05:11:16.932Z,9.75
2022-10-21T05:13:43.527Z,9.85
2022-10-21T05:16:10.110Z,10.05
2022-10-21T05:18:36.735Z,9.95
2022-10-21T05:21:03.696Z,9.57
2022-10-21T05:23:30.653Z,9.52
2022-10-21T05:25:57.264Z,11.00
2022-10-21T05:28:23.851Z,10.73
2022-10-21T05:30:50.400Z,8.48
2022-10-21T05:33:16.984Z,8.52
2022-10-21T05:35:44.032Z,9.00
2022-10-21T05:38:10.669Z,8.32
2022-10-21T05:40:37.283Z,8.63
2022-10-21T05:43:03.887Z,9.18
2022-10-21T05:45:30.526Z,8.90
2022-10-21T05:47:57.129Z,9.10
2022-10-21T05:50:23.715Z,8.93
2022-10-21T05:52:50.291Z,9.07
2022-10-21T05:55:16.952Z,8.95
2022-10-21T05:57:43.621Z,8.65
2022-10-21T06:00:11.083Z,9.23
2022-10-21T06:02:37.992Z,8.77
2022-10-21T06:05:04.966Z,9.30
2022-10-21T06:07:31.550Z,8.48
2022-10-21T06:09:58.121Z,8.10
2022-10-21T06:12:24.759Z,8.32
2022-10-21T06:14:51.371Z,9.00
2022-10-21T06:17:18.007Z,8.82
2022-10-21T06:19:47.292Z,8.55
2022-10-21T06:22:16.880Z,7.50
2022-10-21T06:24:43.480Z,7.25
2022-10-21T06:27:10.128Z,7.90
2022-10-21T06:29:36.718Z,8.18
2022-10-21T06:32:03.444Z,7.18
2022-10-21T06:34:30.028Z,7.72
2022-10-21T06:36:56.615Z,6.22
2022-10-21T06:39:23.163Z,6.25
2022-10-21T06:41:49.734Z,6.25
2022-10-21T06:44:16.279Z,6.25
2022-10-21T06:46:42.876Z,6.00
2022-10-21T06:49:09.438Z,6.35
2022-10-21T06:51:36.033Z,8.15
2022-10-21T06:54:02.594Z,6.15
2022-10-21T06:56:29.245Z,7.57
2022-10-21T06:58:57.466Z,6.93
2022-10-21T07:01:41.007Z,7.03
2022-10-21T07:04:08.968Z,6.07
2022-10-21T07:06:36.622Z,6.75
2022-10-21T07:09:04.808Z,6.63
2022-10-21T07:11:31.504Z,5.82
2022-10-21T07:14:00.293Z,6.43
2022-10-21T07:16:29.811Z,6.18
2022-10-21T07:18:56.452Z,6.85
2022-10-21T07:21:25.177Z,6.47
2022-10-21T07:23:52.672Z,6.35
2022-10-21T07:26:20.980Z,6.40
2022-10-21T07:28:48.009Z,5.53
2022-10-21T07:31:15.727Z,7.18
2022-10-21T07:33:42.566Z,5.95
2022-10-21T07:36:13.590Z,5.70
2022-10-21T07:38:41.257Z,5.28
2022-10-21T07:41:07.832Z,5.60
2022-10-21T07:43:34.398Z,7.40
2022-10-21T07:46:03.186Z,6.28
2022-10-21T07:48:32.691Z,6.40
2022-10-21T07:51:07.060Z,6.57
2022-10-21T07:53:34.425Z,8.10
2022-10-21T07:56:08.073Z,7.75
2022-10-21T07:58:34.812Z,6.03
2022-10-21T08:01:02.271Z,7.30
2022-10-21T08:03:29.278Z,6.28
2022-10-21T08:05:56.313Z,5.97
2022-10-21T08:08:23.277Z,6.00
2022-10-21T08:10:51.764Z,5.88
2022-10-21T08:13:18.520Z,6.45
2022-10-21T08:15:49.905Z,6.70
2022-10-21T08:18:17.116Z,5.95
2022-10-21T08:20:44.954Z,7.05
2022-10-21T08:23:16.964Z,6.07
2022-10-21T08:25:50.793Z,6.23
2022-10-21T08:28:17.924Z,5.90
2022-10-21T08:30:44.975Z,5.72
2022-10-21T08:33:12.315Z,6.28
2022-10-21T08:35:39.654Z,5.68
2022-10-21T08:40:40.505Z,6.18
2022-10-21T08:43:15.312Z,6.90
2022-10-21T08:46:07.759Z,5.72
2022-10-21T08:48:45.639Z,5.73
2022-10-21T08:51:46.339Z,5.97
2022-10-21T08:54:16.461Z,5.25
2022-10-21T08:56:43.070Z,5.50
2022-10-21T08:59:22.204Z,5.05
2022-10-21T09:02:54.190Z,5.28
2022-10-21T09:05:33.325Z,6.35
2022-10-21T09:08:43.640Z,5.35
2022-10-21T09:11:41.887Z,6.25
2022-10-21T09:14:11.454Z,6.60
2022-10-21T09:16:40.905Z,7.50
2022-10-21T09:19:24.068Z,7.22
2022-10-21T09:25:19.300Z,8.48
2022-10-21T09:27:57.316Z,9.63
2022-10-21T09:30:25.386Z,9.75
2022-10-21T09:32:59.731Z,9.30
2022-10-21T09:35:39.871Z,9.18
2022-10-21T09:38:12.602Z,9.63
2022-10-21T09:40:39.191Z,9.43
2022-10-21T09:43:05.782Z,9.50
2022-10-21T09:45:39.563Z,7.82
2022-10-21T09:48:12.989Z,7.72
2022-10-21T09:50:39.616Z,7.90
2022-10-21T09:53:32.697Z,8.23
2022-10-21T09:56:10.513Z,7.20
2022-10-21T09:58:37.012Z,6.85
2022-10-21T10:01:04.550Z,8.07
2022-10-21T10:03:35.041Z,7.28
2022-10-21T10:06:01.990Z,7.68
2022-10-21T10:08:43.229Z,9.15
2022-10-21T10:11:09.793Z,7.28
2022-10-21T10:13:42.638Z,7.03
2022-10-21T10:18:43.860Z,7.82
2022-10-21T10:21:12.729Z,7.40
2022-10-21T10:23:47.846Z,6.93
2022-10-21T10:26:19.719Z,6.22
2022-10-21T10:28:54.864Z,5.35
2022-10-21T10:31:34.898Z,6.45
2022-10-21T10:34:08.412Z,5.22
2022-10-21T10:36:39.388Z,4.28
2022-10-21T10:39:16.141Z,3.72
2022-10-21T10:41:47.711Z,2.88
2022-10-21T10:44:36.349Z,2.50
2022-10-21T10:47:03.890Z,3.13
2022-10-21T10:49:41.551Z,2.47
2022-10-21T10:52:11.161Z,2.38
2022-10-21T10:54:41.777Z,2.60
2022-10-21T10:57:16.368Z,3.00
2022-10-21T11:00:01.588Z,2.60
2022-10-21T11:02:28.214Z,2.78
2022-10-21T11:05:04.415Z,2.22
2022-10-21T11:07:34.130Z,2.78
2022-10-21T11:10:04.035Z,2.97
2022-10-21T11:12:30.791Z,3.30
2022-10-21T11:14:58.621Z,2.90
2022-10-21T11:17:30.799Z,3.05
2022-10-21T11:20:28.334Z,3.80
2022-10-21T11:22:58.162Z,5.65
2022-10-21T11:25:43.787Z,4.20
2022-10-21T11:28:21.874Z,3.67
2022-10-21T11:31:07.400Z,2.65
2022-10-21T11:34:13.416Z,2.53
2022-10-21T11:37:02.627Z,2.50
2022-10-21T11:39:44.244Z,2.10
2022-10-21T11:42:16.738Z,2.22
2022-10-21T11:44:58.521Z,2.35
2022-10-21T11:47:28.760Z,2.47
2022-10-21T11:50:25.170Z,2.70
2022-10-21T11:53:14.317Z,2.15
2022-10-21T11:55:52.908Z,1.85
2022-10-21T11:58:28.432Z,2.00
2022-10-21T12:01:15.011Z,1.90
2022-10-21T12:03:52.354Z,2.00
2022-10-21T12:06:31.083Z,1.98
2022-10-21T12:09:02.709Z,2.28
2022-10-21T12:11:33.954Z,2.05
2022-10-21T12:14:14.409Z,1.23
2022-10-21T12:16:41.064Z,1.70
2022-10-21T12:19:09.501Z,1.48
2022-10-21T12:21:39.578Z,1.50
2022-10-21T12:24:28.524Z,1.30
2022-10-21T12:27:14.043Z,1.90
2022-10-21T12:30:07.109Z,1.60
2022-10-21T12:33:07.442Z,1.42
2022-10-21T12:35:55.261Z,1.67
2022-10-21T12:38:44.890Z,2.90
2022-10-21T12:41:23.801Z,7.95
2022-10-21T12:43:53.598Z,3.75
2022-10-21T12:46:25.046Z,1.50
2022-10-21T12:48:52.485Z,0.98
2022-10-21T12:51:23.192Z,1.65
2022-10-21T12:53:54.105Z,0.80
2022-10-21T12:56:26.784Z,1.42
2022-10-21T12:58:58.299Z,1.45
2022-10-21T13:01:45.855Z,1.48
2022-10-21T13:04:35.275Z,1.10
2022-10-21T13:07:06.476Z,1.13
2022-10-21T13:09:51.491Z,1.02
2022-10-21T13:12:23.895Z,0.85
2022-10-21T13:14:52.513Z,0.88
2022-10-21T13:17:22.049Z,0.90
2022-10-21T13:20:15.389Z,1.00
2022-10-21T13:25:21.409Z,1.00
2022-10-21T13:28:17.664Z,1.30
2022-10-21T13:31:04.440Z,0.90
2022-10-21T13:33:36.349Z,0.90
2022-10-21T13:36:09.073Z,1.07
2022-10-21T13:38:36.442Z,2.63
2022-10-21T13:41:05.381Z,2.92
2022-10-21T13:43:34.851Z,3.30
2022-10-21T13:46:12.326Z,1.63
2022-10-21T13:48:40.645Z,1.38
2022-10-21T13:51:16.086Z,1.33
2022-10-21T13:53:45.763Z,1.80
2022-10-21T13:56:27.265Z,2.08
2022-10-21T13:58:53.842Z,1.55
2022-10-21T14:01:26.002Z,1.75
2022-10-21T14:03:54.329Z,1.00
2022-10-21T14:06:31.040Z,1.20
2022-10-21T14:09:01.054Z,1.60
2022-10-21T14:11:33.479Z,1.85
2022-10-21T14:14:06.733Z,1.95
2022-10-21T14:16:42.497Z,1.45
2022-10-21T14:19:20.206Z,1.50
2022-10-21T14:21:48.120Z,1.48
2022-10-21T14:24:34.384Z,1.10
2022-10-21T14:27:01.146Z,1.05
2022-10-21T14:29:35.577Z,1.25
2022-10-21T14:32:02.897Z,1.35
2022-10-21T14:34:31.882Z,1.42
2022-10-21T14:37:11.801Z,2.35
2022-10-21T14:39:38.977Z,1.13
2022-10-21T14:42:08.440Z,1.60
2022-10-21T14:44:35.031Z,1.40
2022-10-21T14:47:01.636Z,1.10
2022-10-21T14:49:32.923Z,1.00
2022-10-21T14:52:03.292Z,1.30
2022-10-21T14:54:40.252Z,1.20
2022-10-21T14:57:07.708Z,1.20
2022-10-21T14:59:40.033Z,1.10
2022-10-21T15:02:15.097Z,1.27
2022-10-21T15:04:56.933Z,2.10
2022-10-21T15:07:30.393Z,1.13
2022-10-21T15:10:03.100Z,1.05
2022-10-21T15:12:41.711Z,1.15
2022-10-21T15:15:43.500Z,1.25
2022-10-21T15:18:11.924Z,1.30
2022-10-21T15:20:38.618Z,1.30
2022-10-21T15:23:05.369Z,1.20
2022-10-21T15:25:32.100Z,1.70
2022-10-21T15:28:01.789Z,0.93
2022-10-21T15:30:34.993Z,1.20
2022-10-21T15:33:01.619Z,1.27
2022-10-21T15:35:28.318Z,1.25
2022-10-21T15:37:54.946Z,0.82
2022-10-21T15:40:22.254Z,1.30
2022-10-21T15:42:49.530Z,1.23
2022-10-21T15:45:18.204Z,0.80
2022-10-21T15:47:44.813Z,1.23
2022-10-21T15:50:15.442Z,0.98
2022-10-21T15:52:42.749Z,1.10
2022-10-21T15:55:13.068Z,1.10
2022-10-21T15:57:42.521Z,1.20
2022-10-21T16:00:23.160Z,2.10
2022-10-21T16:02:51.737Z,2.10
2022-10-21T16:05:18.768Z,2.10
2022-10-21T16:07:45.520Z,2.42
2022-10-21T16:10:21.550Z,2.50
2022-10-21T16:12:49.323Z,2.70
2022-10-21T16:15:18.096Z,1.73
2022-10-21T16:17:46.911Z,1.77
2022-10-21T16:20:29.464Z,1.10
2022-10-21T16:23:00.567Z,0.85
2022-10-21T16:25:30.690Z,1.73
2022-10-21T16:27:58.351Z,1.30
2022-10-21T16:30:28.326Z,1.00
2022-10-21T16:32:55.337Z,2.00
2022-10-21T16:35:22.389Z,1.73
2022-10-21T16:37:49.970Z,1.65
2022-10-21T16:40:19.593Z,2.60
2022-10-21T16:42:47.277Z,1.58
2022-10-21T16:45:14.515Z,1.70
2022-10-21T16:47:48.771Z,1.15
2022-10-21T16:50:20.883Z,1.55
2022-10-21T16:52:47.639Z,1.60
2022-10-21T16:55:14.822Z,1.10
2022-10-21T16:57:42.311Z,0.93
2022-10-21T17:00:10.267Z,0.80
2022-10-21T17:02:40.384Z,0.95
2022-10-21T17:05:09.098Z,1.23
2022-10-21T17:07:36.930Z,1.52
2022-10-21T17:10:04.663Z,1.58
2022-10-21T17:12:33.784Z,1.67
2022-10-21T17:15:01.329Z,1.85
2022-10-21T17:17:28.865Z,2.80
2022-10-21T17:19:55.588Z,1.80
2022-10-21T17:22:22.723Z,1.33
2022-10-21T17:24:49.788Z,1.63
2022-10-21T17:27:19.654Z,1.92
2022-10-21T17:29:46.997Z,1.98
2022-10-21T17:32:14.342Z,3.67
2022-10-21T17:34:41.549Z,2.60
2022-10-21T17:37:10.484Z,1.50
2022-10-21T17:39:37.599Z,1.83
2022-10-21T17:42:04.927Z,1.60
2022-10-21T17:44:32.072Z,2.17
2022-10-21T17:46:59.242Z,1.90
2022-10-21T17:49:27.226Z,1.70
2022-10-21T17:51:54.408Z,1.75
2022-10-21T17:54:24.199Z,1.73
2022-10-21T17:56:55.231Z,1.77
2022-10-21T17:59:22.354Z,1.48
2022-10-21T18:01:49.570Z,1.88
2022-10-21T18:04:17.866Z,1.50
2022-10-21T18:06:54.394Z,1.42
2022-10-21T18:09:21.142Z,1.80
2022-10-21T18:11:51.334Z,1.50
2022-10-21T18:14:17.926Z,1.50
2022-10-21T18:16:46.872Z,1.20
2022-10-21T18:19:14.007Z,1.63
2022-10-21T18:21:40.770Z,1.70
2022-10-21T18:24:11.464Z,1.58
2022-10-21T18:26:39.674Z,1.60
2022-10-21T18:29:06.243Z,1.50
2022-10-21T18:31:35.135Z,1.20
2022-10-21T18:34:04.026Z,1.40
2022-10-21T18:36:31.015Z,1.40
2022-10-21T18:38:58.664Z,1.52
2022-10-21T18:41:26.174Z,1.10
2022-10-21T18:43:56.403Z,1.30
2022-10-21T18:46:23.518Z,1.30
2022-10-21T18:48:50.458Z,1.75
2022-10-21T18:51:19.204Z,1.77
2022-10-21T18:53:49.768Z,2.53
2022-10-21T18:56:19.428Z,2.33
2022-10-21T18:58:46.134Z,2.90
2022-10-21T19:01:15.151Z,2.47
2022-10-21T19:03:42.015Z,1.98
2022-10-21T19:06:30.491Z,1.85
2022-10-21T19:08:57.345Z,1.92
2022-10-21T19:11:24.257Z,3.15
2022-10-21T19:13:51.261Z,2.83
2022-10-21T19:16:17.865Z,2.80
2022-10-21T19:18:44.502Z,2.92
2022-10-21T19:21:12.986Z,2.50
2022-10-21T19:23:39.566Z,2.33
2022-10-21T19:26:09.040Z,1.50
2022-10-21T19:28:36.188Z,2.00
2022-10-21T19:31:03.146Z,1.98
2022-10-21T19:33:30.893Z,2.05
2022-10-21T19:36:01.428Z,1.83
2022-10-21T19:38:43.163Z,2.70
2022-10-21T19:41:11.720Z,2.55
2022-10-21T19:43:38.679Z,2.83
2022-10-21T19:46:06.383Z,2.10
2022-10-21T19:48:34.519Z,2.63
2022-10-21T19:51:01.089Z,2.40
2022-10-21T19:53:28.265Z,2.60
2022-10-21T19:55:55.591Z,2.72
2022-10-21T19:58:22.193Z,2.10
2022-10-21T20:00:48.799Z,2.05
2022-10-21T20:03:15.405Z,2.00
2022-10-21T20:05:42.230Z,2.13
2022-10-21T20:08:08.953Z,2.08
2022-10-21T20:10:35.569Z,2.42
2022-10-21T20:13:02.233Z,3.03
2022-10-21T20:15:28.855Z,2.40
2022-10-21T20:17:55.469Z,2.08
2022-10-21T20:20:22.032Z,2.30
2022-10-21T20:22:48.705Z,1.80
2022-10-21T20:25:15.327Z,1.73
2022-10-21T20:27:42.025Z,1.70
2022-10-21T20:30:09.278Z,1.55
2022-10-21T20:32:35.918Z,1.67
2022-10-21T20:35:02.500Z,1.80
2022-10-21T20:37:29.068Z,1.67
2022-10-21T20:39:55.628Z,2.15
2022-10-21T20:42:22.208Z,2.20
2022-10-21T20:44:48.779Z,2.08
2022-10-21T20:47:17.053Z,1.73
2022-10-21T20:49:43.747Z,1.92
2022-10-21T20:52:10.331Z,1.63
2022-10-21T20:54:36.887Z,1.58
2022-10-21T20:57:03.529Z,1.42
2022-10-21T20:59:30.111Z,1.40
2022-10-21T21:01:56.707Z,1.85
2022-10-21T21:04:25.338Z,1.75
2022-10-21T21:06:52.144Z,1.65
2022-10-21T21:12:07.112Z,2.10
2022-10-21T21:14:33.841Z,1.55
2022-10-21T21:17:00.416Z,1.60
2022-10-21T21:19:27.028Z,2.00
2022-10-21T21:21:53.734Z,2.47
2022-10-21T21:24:20.315Z,1.88
2022-10-21T21:26:46.941Z,1.88
2022-10-21T21:29:13.843Z,2.22
2022-10-21T21:31:41.344Z,2.03
2022-10-21T21:34:08.047Z,2.03
2022-10-21T21:36:36.765Z,2.60
2022-10-21T21:39:04.845Z,2.65
2022-10-21T21:41:31.509Z,2.15
2022-10-21T21:43:58.415Z,2.60
2022-10-21T21:46:25.487Z,2.05
2022-10-21T21:48:59.655Z,2.05
2022-10-21T21:51:29.984Z,2.17
2022-10-21T21:53:57.393Z,4.28
2022-10-21T21:56:24.510Z,2.47
2022-10-21T21:58:52.239Z,3.40
2022-10-21T22:01:21.273Z,2.50
2022-10-21T22:03:49.341Z,2.50
2022-10-21T22:06:18.052Z,2.85
2022-10-21T22:08:45.223Z,1.92
2022-10-21T22:11:17.133Z,2.08
2022-10-21T22:13:43.776Z,2.10
2022-10-21T22:16:12.330Z,1.83
2022-10-21T22:18:39.233Z,1.58
2022-10-21T22:21:07.942Z,2.28
2022-10-21T22:23:34.683Z,1.90
2022-10-21T22:26:01.474Z,2.22
2022-10-21T22:28:28.991Z,1.80
2022-10-21T22:31:00.704Z,1.60
2022-10-21T22:33:28.113Z,1.88
2022-10-21T22:35:54.862Z,1.17
2022-10-21T22:38:21.620Z,1.25
2022-10-21T22:40:52.612Z,1.38
2022-10-21T22:43:19.229Z,1.27
2022-10-21T22:45:48.080Z,1.20
2022-10-21T22:48:15.103Z,1.10
2022-10-21T22:50:41.668Z,0.68
2022-10-21T22:53:09.324Z,0.88
2022-10-21T22:55:36.114Z,0.80
2022-10-21T22:58:02.721Z,0.80
2022-10-21T23:00:29.264Z,0.65
2022-10-21T23:02:55.848Z,0.80
2022-10-21T23:05:22.987Z,0.73
2022-10-21T23:07:49.659Z,0.70
2022-10-21T23:10:16.333Z,1.08
2022-10-21T23:12:43.086Z,1.17
2022-10-21T23:15:10.562Z,0.70
2022-10-21T23:17:37.144Z,0.60
2022-10-21T23:20:04.066Z,0.90
2022-10-21T23:22:30.653Z,0.50
2022-10-21T23:24:57.224Z,0.73
2022-10-21T23:27:23.791Z,0.60
2022-10-21T23:29:50.357Z,0.60
2022-10-21T23:32:16.923Z,0.68
2022-10-21T23:34:43.477Z,0.70
2022-10-21T23:37:10.136Z,0.82
2022-10-21T23:39:36.787Z,1.05
2022-10-21T23:42:04.540Z,0.50
2022-10-21T23:44:31.112Z,0.70
2022-10-21T23:46:57.759Z,0.70
2022-10-21T23:49:24.500Z,0.60
2022-10-21T23:51:51.116Z,0.68
2022-10-21T23:54:17.722Z,0.60
2022-10-21T23:56:44.387Z,0.70
2022-10-21T23:59:11.199Z,0.60
